Delta Virtual Airport Information Service

Miami International Airport

ICAO: KMIA Country: United States
Latitude: 25.7932 Longitude: -80.2905
Latest Arrival : AAL1536 (2) (MMUN-KMIA) Latest Departure : AAL1194 (A) (KMIA-KMCO)


WX CaptureLIVE
Data provided by noaa.gov | Fetched at 07:53:26

METAR : KMIA 061253Z COR 07004KT 10SM FEW060 BKN160 BKN250 22/14 A2998 RMK AO2 SLP153 T02220139 $

TAF : KMIA 061120Z 0612/0718 VRB06KT P6SM SCT040 SCT250 FM061400 11008KT P6SM VCSH SCT040 SCT120 BKN250 FM061800 14009KT P6SM VCTS SCT030CB BKN050 BKN250 TEMPO 0622/0702 4SM SHRA BKN010 FM070200 02005KT P6SM VCSH SCT025 SCT040 BKN100 FM070600 34007KT P6SM FEW040 SCT100 BKN250


Runway Data for KMIA
Data provided by openaviationdata.com

Runway ID Mag Var Hdg Length Elevation Surface ILS Freq ILS Id ILS Slope
08L -5 92° 8595 ft 8 ft Concrete 109.3 IROY 0
08R -5 92° 10498 ft 8 ft Asphalt 110.3 IMFA 3
9 -5 92° 12994 ft 8 ft Concrete 110.9 IBUL 3
12 -5 124° 9357 ft 8 ft Concrete 108.9 IGEM 3
26L -5 272° 10498 ft 8 ft Asphalt 109.1 IVIN 3
26R -5 272° 8595 ft 8 ft Concrete 109.3 ICNV 0
27 -5 272° 12994 ft 8 ft Concrete 109.5 IMIA 3
30 -5 304° 9357 ft 8 ft Concrete 111.7 IDCX 3

Miami International Airport, United States
Use only for reference purposes



Not for navigational purposes.